Detall de PIREP

Printer-friendly versionPDF version

[2017/10/12 08:27:00]
Flight IATA:CT3217
Pilot Number:012
Company ICAO:CAT
Aircraft Type:B738/F
PAX:160
Departing Airport: EIDW
Destination Airport: LEPA
Alternate Airport:LEBL
Online: VATSIM
Route:PESIT BAKUR UL149 DEVOM UN26 KORER UM616 TUPAR UM184 CNA UN863 AGN UN727 ROCAN UN13 LORES
Flight Level:F370
No Slew and time accel
No pause
Crash detect
Detect pilot in Cockpit between each 30 and 45 minutes
08:27 Zero fuel Weight: 123996 Lbs, Fuel Weight: 22387 Lbs
08:27 VATSIM:EIDW 120800Z 22009KT 9999 FEW018 BKN250 09/07 Q1015 NOSIG
08:27 VATSIM:LEPA 120800Z VRB01KT 9999 FEW018 20/18 Q1027 NOSIG
08:36 Parking Brakes off
08:41 Take-off
08:41 Take off Weight: 145785 Lbs
08:41 Wind: 223º @ 009 Knots Heading: 273º
08:41 POS N53º 25´ 17´´ W006º 16´ 35´´
08:41 Flaps:3 at 158 Knots
08:41 Gear Up: 159 Knots
08:42 Flaps:2 at 172 Knots
08:42 Flaps:1 at 181 Knots
08:42 Flaps:0 at 210 Knots
08:56 Wind:282º@052 Knots Heading: 165º Ground Speed: 490 Knots Altitude 29438 ft
09:03 TOC
09:03 Fuel Weight: 17663 Lb
09:11 Wind:294º@048 Knots Heading: 129º Ground Speed: 503 Knots Altitude 37221 ft
09:26 Wind:279º@037 Knots Heading: 170º Ground Speed: 473 Knots Altitude 37283 ft
09:41 Wind:274º@036 Knots Heading: 136º Ground Speed: 488 Knots Altitude 37345 ft
09:56 Wind:278º@035 Knots Heading: 157º Ground Speed: 476 Knots Altitude 37408 ft
10:11 Wind:279º@030 Knots Heading: 124º Ground Speed: 490 Knots Altitude 37404 ft
10:26 Wind:282º@015 Knots Heading: 166º Ground Speed: 473 Knots Altitude 37417 ft
10:31 TOD
10:31 Fuel Weight: 9687 Lb
10:41 Wind:286º@008 Knots Heading: 152º Ground Speed: 384 Knots Altitude 14625 ft
10:43 Flaps:1 at 311 Knots
10:44 Flaps:2 at 211 Knots
10:46 Flaps:3 at 210 Knots
10:47 Gear Down: 206 Knots
10:48 Flaps:4 at 193 Knots
10:49 Flaps:5 at 179 Knots
10:49 Flaps:6 at 158 Knots
10:50 Flaps:7 at 150 Knots
10:50 Flaps:8 at 164 Knots
10:55 TouchDown:Rate -127 ft/min Speed: 127 Knots
10:55 VATSIM:LEPA 121030Z 25007KT 180V300 9999 FEW020 24/18 Q1027 NOSIG
10:55 Land
10:55 Wind:240º@005 Knots
10:55 Heading: 254º
10:55 Flight Duration: 02:14
10:55 Landing Weight: 132071 Lbs
10:55 POS N39º 32´ 54´´ E002º 44´ 47´´
10:57 Parking brakes on
10:57 Block to Block Duration: 02:21
10:57 Final Fuel: 7914 Lbls
10:57 Spent Fuel: 14473 Lbls
10:57 Flight Length: 977 NM
10:57 TOD Land Length: 118 NM

Exportar CSV

Powered by Drupal - Modified by Danger4k